createdAt,value
2022-10-18T00:03:35.043Z,0.00
2022-10-18T00:04:19.629Z,0.00
2022-10-18T00:07:01.153Z,0.00
2022-10-18T00:59:15.596Z,0.00
2022-10-18T01:00:11.104Z,0.00
2022-10-18T01:01:15.647Z,0.00
2022-10-18T01:08:28.564Z,0.00
2022-10-18T01:14:13.503Z,0.00
2022-10-18T01:18:31.876Z,0.00
2022-10-18T01:19:31.916Z,0.00
2022-10-18T01:20:31.980Z,0.00
2022-10-18T01:21:34.335Z,0.00
2022-10-18T01:22:33.845Z,0.00
2022-10-18T01:23:33.838Z,0.00
2022-10-18T01:24:34.781Z,0.00
2022-10-18T01:25:33.836Z,0.00
2022-10-18T01:26:33.964Z,0.00
2022-10-18T01:27:33.318Z,0.00
2022-10-18T01:28:33.877Z,0.00
2022-10-18T01:29:33.142Z,0.00
2022-10-18T01:30:33.075Z,0.00
2022-10-18T01:31:33.891Z,0.00
2022-10-18T01:32:33.011Z,0.00
2022-10-18T01:33:33.640Z,0.00
2022-10-18T01:34:32.987Z,0.00
2022-10-18T01:35:33.194Z,0.00
2022-10-18T01:36:33.663Z,0.00
2022-10-18T01:37:33.233Z,0.00
2022-10-18T02:01:58.999Z,0.00
2022-10-18T02:02:58.976Z,0.00
2022-10-18T02:04:00.140Z,0.00
2022-10-18T02:05:00.109Z,0.00
2022-10-18T02:06:00.106Z,0.00
2022-10-18T02:07:00.118Z,0.00
2022-10-18T02:08:18.947Z,0.00
2022-10-18T02:09:02.117Z,0.00
2022-10-18T02:10:00.142Z,0.00
2022-10-18T02:11:00.124Z,0.00
2022-10-18T02:12:00.090Z,0.00
2022-10-18T02:13:00.110Z,0.00
2022-10-18T02:14:00.062Z,0.00
2022-10-18T02:15:00.077Z,0.00
2022-10-18T02:16:00.125Z,0.00
2022-10-18T02:17:00.051Z,0.00
2022-10-18T02:18:00.028Z,0.00
2022-10-18T02:19:00.024Z,0.00
2022-10-18T02:20:00.066Z,0.00
2022-10-18T02:21:00.034Z,0.00
2022-10-18T02:21:59.994Z,0.00
2022-10-18T02:22:59.996Z,0.00
2022-10-18T02:23:59.993Z,0.00
2022-10-18T02:24:59.985Z,0.00
2022-10-18T02:25:59.986Z,0.00
2022-10-18T02:26:59.925Z,0.00
2022-10-18T02:27:59.953Z,0.00
2022-10-18T02:28:59.956Z,0.00
2022-10-18T02:29:59.922Z,0.00
2022-10-18T02:30:59.917Z,0.00
2022-10-18T02:31:59.903Z,0.00
2022-10-18T02:32:59.901Z,0.00
2022-10-18T02:33:59.912Z,0.00
2022-10-18T02:34:59.903Z,0.00
2022-10-18T02:35:59.888Z,0.00
2022-10-18T02:36:59.858Z,0.00
2022-10-18T02:37:59.860Z,0.00
2022-10-18T02:38:59.949Z,0.00
2022-10-18T02:39:59.864Z,0.00
2022-10-18T02:40:59.869Z,0.00
2022-10-18T02:41:59.879Z,0.00
2022-10-18T02:42:59.817Z,0.00
2022-10-18T02:43:59.817Z,0.00
2022-10-18T02:44:59.817Z,0.00
2022-10-18T02:45:59.837Z,0.00
2022-10-18T02:46:59.839Z,0.00
2022-10-18T02:47:59.812Z,0.00
2022-10-18T02:48:59.784Z,0.00
2022-10-18T02:49:59.768Z,0.00
2022-10-18T02:50:59.765Z,0.00
2022-10-18T02:51:59.765Z,0.00
2022-10-18T02:52:59.763Z,0.00
2022-10-18T02:53:59.767Z,0.00
2022-10-18T02:54:59.731Z,0.00
2022-10-18T02:55:59.788Z,0.00
2022-10-18T02:56:59.770Z,0.00
2022-10-18T02:57:59.698Z,0.00
2022-10-18T02:59:00.727Z,0.00
2022-10-18T02:59:59.714Z,0.00
2022-10-18T03:00:59.671Z,0.00
2022-10-18T03:01:59.706Z,0.00
2022-10-18T03:02:59.671Z,0.00
2022-10-18T03:03:59.672Z,0.00
2022-10-18T03:04:59.660Z,0.00
2022-10-18T03:05:59.669Z,0.00
2022-10-18T03:06:59.683Z,0.00
2022-10-18T03:07:59.656Z,0.00
2022-10-18T03:08:59.627Z,0.00
2022-10-18T03:09:59.634Z,0.00
2022-10-18T03:10:59.616Z,0.00
2022-10-18T03:11:59.625Z,0.00
2022-10-18T03:12:59.600Z,0.00
2022-10-18T03:13:59.622Z,0.00
2022-10-18T03:14:59.632Z,0.00
2022-10-18T03:15:59.607Z,0.00
2022-10-18T03:16:59.578Z,0.00
2022-10-18T03:17:59.599Z,0.00
2022-10-18T03:18:59.553Z,0.00
2022-10-18T03:19:59.559Z,0.00
2022-10-18T03:20:59.557Z,0.00
2022-10-18T03:21:59.575Z,0.00
2022-10-18T03:22:59.510Z,0.00
2022-10-18T03:24:00.253Z,0.00
2022-10-18T03:24:59.510Z,0.00
2022-10-18T03:25:59.519Z,0.00
2022-10-18T03:26:59.510Z,0.00
2022-10-18T03:27:59.465Z,0.00
2022-10-18T03:28:59.573Z,0.00
2022-10-18T03:29:59.481Z,0.00
2022-10-18T03:30:59.459Z,0.00
2022-10-18T03:31:59.499Z,0.00
2022-10-18T03:32:59.435Z,0.00
2022-10-18T03:33:59.446Z,0.00
2022-10-18T03:34:59.417Z,0.00
2022-10-18T03:35:59.397Z,0.00
2022-10-18T03:37:02.104Z,0.00
2022-10-18T03:38:01.424Z,0.00
2022-10-18T03:38:59.392Z,0.00
2022-10-18T03:39:59.400Z,0.00
2022-10-18T03:40:59.372Z,0.00
2022-10-18T03:41:59.388Z,0.00
2022-10-18T03:42:59.411Z,0.00
2022-10-18T03:43:59.417Z,0.00
2022-10-18T03:44:59.453Z,0.00
2022-10-18T03:45:59.330Z,0.00
2022-10-18T03:46:59.369Z,0.00
2022-10-18T04:02:42.402Z,0.00
2022-10-18T04:03:42.374Z,0.00
2022-10-18T04:04:43.523Z,0.00
2022-10-18T04:05:43.542Z,0.00
2022-10-18T04:06:43.521Z,0.00
2022-10-18T04:07:43.517Z,0.00
2022-10-18T04:08:43.487Z,0.00
2022-10-18T04:09:43.469Z,0.00
2022-10-18T04:10:43.491Z,0.00
2022-10-18T04:11:43.459Z,0.00
2022-10-18T04:12:44.481Z,0.00
2022-10-18T04:13:43.469Z,0.00
2022-10-18T04:14:43.472Z,0.00
2022-10-18T04:15:43.479Z,0.00
2022-10-18T04:16:43.446Z,0.00
2022-10-18T04:17:43.428Z,0.00
2022-10-18T04:18:43.407Z,0.00
2022-10-18T04:19:43.418Z,0.00
2022-10-18T04:20:43.469Z,0.00
2022-10-18T04:21:43.423Z,0.00
2022-10-18T04:22:43.407Z,0.00
2022-10-18T04:23:43.450Z,0.00
2022-10-18T04:24:43.400Z,0.00
2022-10-18T04:26:43.375Z,0.00
2022-10-18T04:27:43.390Z,0.00
2022-10-18T04:28:43.411Z,0.00
2022-10-18T04:29:43.375Z,0.00
2022-10-18T04:30:43.336Z,0.00
2022-10-18T04:31:43.315Z,0.00
2022-10-18T04:32:43.289Z,0.00
2022-10-18T04:33:43.329Z,0.00
2022-10-18T04:35:44.275Z,0.00
2022-10-18T04:36:43.278Z,0.00
2022-10-18T04:37:43.248Z,0.00
2022-10-18T04:38:43.267Z,0.00
2022-10-18T04:39:43.261Z,0.00
2022-10-18T04:40:43.256Z,0.00
2022-10-18T04:41:43.245Z,0.00
2022-10-18T04:42:44.224Z,0.00
2022-10-18T04:43:43.244Z,0.00
2022-10-18T04:44:43.233Z,0.00
2022-10-18T04:45:43.248Z,0.00
2022-10-18T04:46:43.206Z,0.00
2022-10-18T04:47:43.219Z,0.00
2022-10-18T04:48:43.226Z,0.00
2022-10-18T04:49:43.348Z,0.00
2022-10-18T04:50:43.175Z,0.00
2022-10-18T04:51:43.194Z,0.00
2022-10-18T04:52:43.226Z,0.00
2022-10-18T04:53:43.137Z,0.00
2022-10-18T04:54:43.155Z,0.00
2022-10-18T04:55:43.162Z,0.00
2022-10-18T04:56:43.145Z,0.00
2022-10-18T04:57:43.129Z,0.00
2022-10-18T04:58:43.905Z,0.00
2022-10-18T04:59:43.084Z,0.00
2022-10-18T05:00:43.146Z,0.00
2022-10-18T05:01:43.171Z,0.00
2022-10-18T05:02:43.115Z,0.00
2022-10-18T05:03:43.066Z,0.00
2022-10-18T05:05:16.814Z,0.00
2022-10-18T05:06:00.871Z,0.00
2022-10-18T05:06:45.064Z,0.00
2022-10-18T05:07:43.045Z,0.00
2022-10-18T05:08:43.038Z,0.00
2022-10-18T05:09:43.012Z,0.00
2022-10-18T05:10:43.057Z,0.00
2022-10-18T05:11:43.027Z,0.00
2022-10-18T05:12:43.011Z,0.00
2022-10-18T05:13:44.994Z,0.00
2022-10-18T05:14:43.029Z,0.00
2022-10-18T05:15:42.959Z,0.00
2022-10-18T05:16:42.957Z,0.00
2022-10-18T05:17:43.951Z,0.00
2022-10-18T05:18:42.977Z,0.00
2022-10-18T05:19:42.933Z,0.00
2022-10-18T05:20:42.950Z,0.00
2022-10-18T05:21:42.947Z,0.00
2022-10-18T05:22:42.925Z,0.00
2022-10-18T05:25:41.051Z,0.00
2022-10-18T05:26:41.019Z,0.00
2022-10-18T05:27:42.208Z,0.00
2022-10-18T05:28:42.260Z,0.00
2022-10-18T05:29:42.184Z,0.00
2022-10-18T05:30:42.194Z,0.00
2022-10-18T05:31:42.146Z,0.00
2022-10-18T05:32:42.143Z,0.00
2022-10-18T05:33:42.161Z,0.00
2022-10-18T05:34:42.174Z,0.00
2022-10-18T05:35:42.135Z,0.00
2022-10-18T05:36:42.118Z,0.00
2022-10-18T05:38:14.615Z,0.00
2022-10-18T05:38:42.366Z,0.00
2022-10-18T05:40:15.336Z,0.00
2022-10-18T05:40:42.151Z,0.00
2022-10-18T05:41:42.088Z,0.00
2022-10-18T05:42:42.086Z,0.00
2022-10-18T05:43:42.036Z,0.00
2022-10-18T05:44:42.040Z,0.00
2022-10-18T05:45:42.035Z,0.00
2022-10-18T05:47:15.968Z,0.00
2022-10-18T05:47:42.009Z,0.00
2022-10-18T05:48:42.006Z,0.00
2022-10-18T05:49:42.031Z,0.00
2022-10-18T05:51:15.757Z,0.00
2022-10-18T05:51:41.976Z,0.00
2022-10-18T05:52:42.042Z,0.00
2022-10-18T05:53:41.965Z,0.00
2022-10-18T05:54:41.974Z,0.00
2022-10-18T05:55:41.958Z,0.00
2022-10-18T05:56:42.761Z,0.00
2022-10-18T05:57:41.981Z,0.00
2022-10-18T05:58:41.983Z,0.00
2022-10-18T05:59:42.037Z,0.00
2022-10-18T06:00:41.921Z,0.00
2022-10-18T06:01:41.939Z,5.62
2022-10-18T06:02:42.033Z,5.62
2022-10-18T06:03:41.916Z,5.62
2022-10-18T06:04:41.877Z,5.62
2022-10-18T06:05:41.881Z,11.25
2022-10-18T06:06:41.915Z,11.25
2022-10-18T06:07:41.924Z,11.25
2022-10-18T06:08:41.893Z,16.88
2022-10-18T06:09:41.975Z,16.88
2022-10-18T06:10:41.818Z,16.88
2022-10-18T06:11:41.839Z,16.88
2022-10-18T06:12:41.853Z,16.88
2022-10-18T06:13:41.843Z,16.88
2022-10-18T06:14:41.810Z,16.88
2022-10-18T06:15:41.866Z,16.88
2022-10-18T06:16:41.811Z,16.88
2022-10-18T06:17:41.756Z,11.25
2022-10-18T06:18:41.772Z,11.25
2022-10-18T06:19:41.833Z,11.25
2022-10-18T06:20:41.759Z,11.25
2022-10-18T06:21:41.793Z,11.25
2022-10-18T06:22:41.736Z,11.25
2022-10-18T06:23:41.719Z,11.25
2022-10-18T06:24:41.720Z,11.25
2022-10-18T06:25:41.726Z,11.25
2022-10-18T06:26:41.726Z,11.25
2022-10-18T06:27:41.682Z,11.25
2022-10-18T06:28:41.763Z,11.25
2022-10-18T06:29:41.718Z,11.25
2022-10-18T06:30:41.672Z,11.25
2022-10-18T06:31:41.663Z,11.25
2022-10-18T06:32:41.649Z,16.88
2022-10-18T06:33:41.649Z,16.88
2022-10-18T06:34:41.670Z,16.88
2022-10-18T06:35:41.631Z,16.88
2022-10-18T06:36:41.614Z,16.88
2022-10-18T06:38:41.636Z,22.50
2022-10-18T06:39:41.617Z,22.50
2022-10-18T06:40:41.729Z,28.12
2022-10-18T06:41:41.602Z,28.12
2022-10-18T06:42:41.599Z,28.12
2022-10-18T06:43:41.584Z,33.75
2022-10-18T06:44:41.598Z,33.75
2022-10-18T06:45:41.577Z,39.38
2022-10-18T06:46:41.571Z,39.38
2022-10-18T06:47:41.546Z,39.38
2022-10-18T06:48:41.601Z,39.38
2022-10-18T06:49:41.561Z,39.38
2022-10-18T06:50:41.526Z,39.38
2022-10-18T06:51:41.516Z,33.75
2022-10-18T06:52:41.541Z,33.75
2022-10-18T06:53:44.495Z,33.75
2022-10-18T06:54:45.303Z,33.75
2022-10-18T06:55:41.499Z,33.75
2022-10-18T06:56:41.513Z,33.75
2022-10-18T06:57:41.485Z,39.38
2022-10-18T06:58:41.504Z,39.38
2022-10-18T06:59:41.476Z,39.38
2022-10-18T07:00:41.487Z,45.00
2022-10-18T07:01:41.465Z,45.00
2022-10-18T07:02:41.434Z,45.00
2022-10-18T07:03:41.444Z,39.38
2022-10-18T07:04:41.408Z,39.38
2022-10-18T07:05:41.400Z,33.75
2022-10-18T07:06:41.402Z,33.75
2022-10-18T07:07:41.435Z,33.75
2022-10-18T07:08:41.381Z,33.75
2022-10-18T07:09:41.379Z,33.75
2022-10-18T07:10:41.389Z,39.38
2022-10-18T07:11:41.390Z,39.38
2022-10-18T07:12:41.370Z,45.00
2022-10-18T07:13:41.364Z,45.00
2022-10-18T07:14:41.333Z,45.00
2022-10-18T07:15:41.327Z,50.62
2022-10-18T07:16:41.336Z,45.00
2022-10-18T07:17:41.324Z,50.62
2022-10-18T07:18:41.347Z,50.62
2022-10-18T07:19:41.279Z,50.62
2022-10-18T07:20:41.281Z,50.62
2022-10-18T07:21:41.275Z,56.25
2022-10-18T07:22:41.273Z,56.25
2022-10-18T07:23:41.259Z,56.25
2022-10-18T07:24:41.298Z,56.25
2022-10-18T07:25:41.339Z,56.25
2022-10-18T07:26:41.238Z,56.25
2022-10-18T07:27:41.250Z,56.25
2022-10-18T07:28:41.252Z,56.25
2022-10-18T07:29:41.249Z,61.88
2022-10-18T07:30:41.215Z,67.50
2022-10-18T07:31:41.207Z,67.50
2022-10-18T07:32:41.176Z,67.50
2022-10-18T07:33:41.165Z,67.50
2022-10-18T07:34:41.198Z,67.50
2022-10-18T07:35:41.446Z,67.50
2022-10-18T07:36:41.169Z,67.50
2022-10-18T07:37:41.146Z,67.50
2022-10-18T07:38:41.143Z,67.50
2022-10-18T07:39:41.157Z,67.50
2022-10-18T07:40:41.165Z,61.88
2022-10-18T07:41:41.179Z,61.88
2022-10-18T07:42:41.107Z,56.25
2022-10-18T07:43:41.113Z,56.25
2022-10-18T07:44:41.081Z,50.62
2022-10-18T07:45:41.089Z,50.62
2022-10-18T07:46:41.186Z,50.62
2022-10-18T07:47:41.591Z,45.00
2022-10-18T07:48:41.059Z,45.00
2022-10-18T07:49:41.046Z,45.00
2022-10-18T07:50:41.080Z,39.38
2022-10-18T07:51:41.049Z,39.38
2022-10-18T07:52:41.073Z,39.38
2022-10-18T07:53:41.018Z,39.38
2022-10-18T07:54:41.083Z,39.38
2022-10-18T07:55:41.021Z,39.38
2022-10-18T07:56:41.011Z,39.38
2022-10-18T07:57:41.027Z,45.00
2022-10-18T07:58:40.982Z,45.00
2022-10-18T07:59:40.986Z,45.00
2022-10-18T08:00:41.009Z,50.62
2022-10-18T08:01:41.057Z,50.62
2022-10-18T08:02:40.984Z,45.00
2022-10-18T08:03:40.959Z,45.00
2022-10-18T08:04:40.979Z,45.00
2022-10-18T08:05:40.919Z,39.38
2022-10-18T08:06:40.908Z,39.38
2022-10-18T08:07:40.929Z,39.38
2022-10-18T08:08:40.915Z,33.75
2022-10-18T08:09:40.933Z,33.75
2022-10-18T08:10:40.915Z,33.75
2022-10-18T08:11:40.905Z,33.75
2022-10-18T08:12:40.907Z,33.75
2022-10-18T08:13:40.841Z,33.75
2022-10-18T08:14:40.893Z,33.75
2022-10-18T08:15:40.868Z,39.38
2022-10-18T08:16:40.861Z,39.38
2022-10-18T08:17:40.823Z,45.00
2022-10-18T08:18:40.846Z,50.62
2022-10-18T08:19:52.673Z,50.62
2022-10-18T08:20:42.823Z,56.25
2022-10-18T08:21:40.818Z,61.88
2022-10-18T14:22:40.995Z,354.38
2022-10-18T14:23:40.974Z,354.38
2022-10-18T14:24:40.956Z,354.38
2022-10-18T14:25:40.977Z,365.62
2022-10-18T14:26:42.124Z,371.25
2022-10-18T14:27:42.143Z,326.25
2022-10-18T14:28:59.019Z,258.75
2022-10-18T14:29:44.160Z,241.88
2022-10-18T14:30:42.075Z,230.62
2022-10-18T14:31:42.076Z,225.00
2022-10-18T14:32:42.064Z,225.00
2022-10-18T14:33:42.133Z,202.50
2022-10-18T14:34:42.065Z,185.62
2022-10-18T14:35:42.034Z,180.00
2022-10-18T14:36:42.028Z,174.38
2022-10-18T14:37:42.024Z,174.38
2022-10-18T14:38:42.024Z,168.75
2022-10-18T14:39:42.045Z,163.12
2022-10-18T14:40:42.018Z,163.12
2022-10-18T14:41:42.009Z,157.50
2022-10-18T14:42:42.006Z,151.88
2022-10-18T14:43:42.014Z,151.88
2022-10-18T14:44:41.979Z,151.88
2022-10-18T14:45:41.983Z,151.88
2022-10-18T14:46:41.982Z,151.88
2022-10-18T14:47:41.942Z,151.88
2022-10-18T14:48:41.979Z,174.38
2022-10-18T14:49:41.958Z,168.75
2022-10-18T14:50:41.957Z,151.88
2022-10-18T14:51:41.944Z,157.50
2022-10-18T14:52:41.938Z,146.25
2022-10-18T14:53:41.919Z,146.25
2022-10-18T14:54:41.976Z,140.62
2022-10-18T14:55:41.940Z,140.62
2022-10-18T14:56:41.885Z,135.00
2022-10-18T14:57:41.886Z,129.38
2022-10-18T14:58:41.894Z,129.38
2022-10-18T14:59:41.870Z,123.75
2022-10-18T15:00:43.944Z,123.75
2022-10-18T15:01:42.901Z,123.75
2022-10-18T15:02:41.860Z,123.75
2022-10-18T15:03:41.843Z,123.75
2022-10-18T15:04:41.865Z,129.38
2022-10-18T15:05:41.844Z,129.38
2022-10-18T15:06:41.842Z,129.38
2022-10-18T15:07:41.817Z,135.00
2022-10-18T15:08:41.793Z,135.00
2022-10-18T15:09:41.798Z,129.38
2022-10-18T15:10:41.774Z,129.38
2022-10-18T15:11:41.781Z,123.75
2022-10-18T15:13:04.473Z,123.75
2022-10-18T15:13:43.786Z,123.75
2022-10-18T15:14:41.741Z,118.12
2022-10-18T15:15:42.746Z,118.12
2022-10-18T15:16:41.739Z,118.12
2022-10-18T15:17:41.857Z,118.12
2022-10-18T15:18:43.662Z,112.50
2022-10-18T15:19:41.750Z,112.50
2022-10-18T15:20:41.749Z,106.88
2022-10-18T15:21:41.702Z,101.25
2022-10-18T15:22:41.746Z,101.25
2022-10-18T15:23:41.712Z,112.50
2022-10-18T15:24:41.676Z,95.62
2022-10-18T15:25:43.315Z,95.62
2022-10-18T15:26:41.685Z,95.62
2022-10-18T15:28:41.725Z,84.38
2022-10-18T15:29:41.757Z,84.38
2022-10-18T15:30:41.644Z,84.38
2022-10-18T15:31:41.614Z,78.75
2022-10-18T15:32:41.661Z,78.75
2022-10-18T15:33:42.331Z,78.75
2022-10-18T15:34:41.625Z,73.12
2022-10-18T15:35:44.504Z,73.12
2022-10-18T15:37:41.617Z,67.50
2022-10-18T15:38:46.288Z,67.50
2022-10-18T15:39:42.601Z,61.88
2022-10-18T15:40:41.580Z,61.88
2022-10-18T15:41:41.595Z,56.25
2022-10-18T15:42:42.298Z,56.25
2022-10-18T15:43:41.550Z,50.62
2022-10-18T15:44:41.735Z,50.62
2022-10-18T15:45:41.589Z,50.62
2022-10-18T15:46:41.554Z,50.62
2022-10-18T15:47:41.523Z,45.00
2022-10-18T15:48:41.538Z,45.00
2022-10-18T15:49:41.542Z,45.00
2022-10-18T15:50:41.518Z,45.00
2022-10-18T15:51:41.545Z,45.00
2022-10-18T15:52:41.502Z,39.38
2022-10-18T15:53:41.497Z,39.38
2022-10-18T15:54:41.513Z,39.38
2022-10-18T15:55:41.509Z,39.38
2022-10-18T15:56:41.459Z,33.75
2022-10-18T15:57:41.490Z,33.75
2022-10-18T15:58:41.467Z,28.12
2022-10-18T15:59:41.457Z,22.50
2022-10-18T16:00:41.480Z,22.50
2022-10-18T16:01:41.490Z,16.88
2022-10-18T16:02:41.429Z,16.88
2022-10-18T16:03:41.570Z,16.88
2022-10-18T16:04:41.430Z,11.25
2022-10-18T16:05:41.347Z,11.25
2022-10-18T16:06:41.423Z,11.25
2022-10-18T16:07:41.404Z,11.25
2022-10-18T16:08:41.417Z,11.25
2022-10-18T16:09:41.381Z,11.25
2022-10-18T16:10:41.352Z,11.25
2022-10-18T16:11:41.371Z,5.62
2022-10-18T16:12:41.343Z,5.62
2022-10-18T16:13:41.352Z,5.62
2022-10-18T16:14:41.304Z,5.62
2022-10-18T16:15:41.305Z,5.62
2022-10-18T16:16:41.304Z,5.62
2022-10-18T16:17:41.340Z,5.62
2022-10-18T16:18:41.298Z,5.62
2022-10-18T16:19:41.287Z,5.62
2022-10-18T16:20:41.258Z,5.62
2022-10-18T16:21:41.270Z,5.62
2022-10-18T16:22:41.773Z,5.62
2022-10-18T16:23:41.263Z,5.62
2022-10-18T16:24:41.240Z,5.62
2022-10-18T16:25:41.234Z,5.62
2022-10-18T16:26:41.222Z,0.00
2022-10-18T16:27:41.374Z,0.00
2022-10-18T16:28:41.346Z,0.00
2022-10-18T16:29:41.221Z,0.00
2022-10-18T16:30:41.236Z,0.00
2022-10-18T16:31:41.223Z,0.00
2022-10-18T16:32:41.231Z,0.00
2022-10-18T16:33:41.313Z,0.00
2022-10-18T16:34:41.188Z,0.00
2022-10-18T16:35:41.182Z,0.00
2022-10-18T16:36:41.177Z,0.00
2022-10-18T16:37:41.187Z,0.00
2022-10-18T16:38:41.195Z,0.00
2022-10-18T16:39:41.188Z,0.00
2022-10-18T16:40:41.497Z,0.00
2022-10-18T16:41:41.121Z,0.00
2022-10-18T16:42:41.110Z,0.00
2022-10-18T16:43:41.175Z,0.00
2022-10-18T16:44:41.121Z,0.00
2022-10-18T16:45:41.096Z,0.00
2022-10-18T16:46:41.184Z,0.00
2022-10-18T16:47:41.111Z,0.00
2022-10-18T16:48:41.121Z,0.00
2022-10-18T16:49:41.087Z,0.00
2022-10-18T16:50:41.078Z,0.00
2022-10-18T16:51:41.084Z,0.00
2022-10-18T16:52:41.045Z,0.00
2022-10-18T16:53:41.038Z,0.00
2022-10-18T16:54:41.034Z,0.00
2022-10-18T16:55:41.903Z,0.00
2022-10-18T16:56:41.059Z,0.00
2022-10-18T16:57:41.080Z,0.00
2022-10-18T16:58:40.983Z,0.00
2022-10-18T16:59:41.041Z,0.00
2022-10-18T17:00:41.009Z,0.00
2022-10-18T17:01:41.111Z,0.00
2022-10-18T17:02:40.989Z,0.00
2022-10-18T17:03:40.987Z,0.00
2022-10-18T17:04:40.973Z,0.00
2022-10-18T17:05:40.948Z,0.00
2022-10-18T17:06:40.967Z,0.00
2022-10-18T17:07:40.914Z,0.00
2022-10-18T17:08:40.935Z,0.00
2022-10-18T17:09:40.940Z,0.00
2022-10-18T17:10:40.938Z,0.00
2022-10-18T17:11:40.916Z,0.00
2022-10-18T17:12:40.900Z,0.00
2022-10-18T17:13:40.900Z,0.00
2022-10-18T17:14:40.868Z,0.00
2022-10-18T17:15:40.855Z,0.00
2022-10-18T17:16:40.871Z,0.00
2022-10-18T17:17:40.838Z,0.00
2022-10-18T17:18:40.879Z,0.00
2022-10-18T17:19:40.865Z,0.00
2022-10-18T17:20:40.835Z,0.00
2022-10-18T17:21:40.850Z,0.00
2022-10-18T17:22:40.793Z,0.00
2022-10-18T17:23:40.859Z,0.00
2022-10-18T17:24:40.792Z,0.00
2022-10-18T17:25:51.506Z,0.00
2022-10-18T17:26:42.822Z,0.00
2022-10-18T17:27:41.339Z,0.00
2022-10-18T17:28:40.767Z,0.00
2022-10-18T17:29:40.728Z,0.00
2022-10-18T17:30:40.733Z,0.00
2022-10-18T17:31:40.789Z,0.00
2022-10-18T17:32:40.735Z,0.00
2022-10-18T17:33:40.725Z,0.00
2022-10-18T17:35:40.689Z,0.00
2022-10-18T17:36:40.696Z,0.00
2022-10-18T17:37:44.031Z,0.00
2022-10-18T17:38:42.654Z,0.00
2022-10-18T17:39:40.647Z,0.00
2022-10-18T17:40:40.682Z,0.00
2022-10-18T17:41:40.707Z,0.00
2022-10-18T17:42:40.649Z,0.00
2022-10-18T17:44:41.668Z,0.00
2022-10-18T17:45:40.622Z,0.00
2022-10-18T17:46:40.665Z,0.00
2022-10-18T17:47:40.640Z,0.00
2022-10-18T17:48:40.620Z,0.00
2022-10-18T17:49:40.617Z,0.00
2022-10-18T17:50:40.573Z,0.00
2022-10-18T17:51:40.576Z,0.00
2022-10-18T17:52:40.665Z,0.00
2022-10-18T17:53:40.583Z,0.00
2022-10-18T17:54:40.577Z,0.00
2022-10-18T17:55:40.543Z,0.00
2022-10-18T17:56:40.547Z,0.00
2022-10-18T17:57:40.521Z,0.00
2022-10-18T17:58:40.520Z,0.00
2022-10-18T17:59:40.564Z,0.00
2022-10-18T18:00:40.544Z,0.00
2022-10-18T18:01:41.165Z,0.00
2022-10-18T18:02:41.950Z,0.00
2022-10-18T18:03:40.485Z,0.00
2022-10-18T18:04:40.518Z,0.00
2022-10-18T18:05:40.471Z,0.00
2022-10-18T18:06:40.520Z,0.00
2022-10-18T18:07:40.486Z,0.00
2022-10-18T18:08:40.452Z,0.00
2022-10-18T18:09:40.472Z,0.00
2022-10-18T18:10:40.474Z,0.00
2022-10-18T18:11:40.464Z,0.00
2022-10-18T18:12:40.452Z,0.00
2022-10-18T18:13:40.415Z,0.00
2022-10-18T18:14:40.382Z,0.00
2022-10-18T18:15:40.390Z,0.00
2022-10-18T18:16:40.388Z,0.00
2022-10-18T18:17:56.692Z,0.00
2022-10-18T18:18:42.396Z,0.00
2022-10-18T18:19:40.447Z,0.00
2022-10-18T18:20:40.366Z,0.00
2022-10-18T18:21:40.393Z,0.00
2022-10-18T18:22:42.390Z,0.00
2022-10-18T18:23:41.429Z,0.00
2022-10-18T18:24:40.353Z,0.00
2022-10-18T18:25:40.316Z,0.00
2022-10-18T18:26:40.336Z,0.00
2022-10-18T18:27:40.324Z,0.00
2022-10-18T18:28:40.481Z,0.00
2022-10-18T18:29:40.293Z,0.00
2022-10-18T18:30:40.280Z,0.00
2022-10-18T18:31:43.436Z,0.00
2022-10-18T18:32:40.312Z,0.00
2022-10-18T18:33:40.323Z,0.00
2022-10-18T18:34:40.239Z,0.00
2022-10-18T18:35:40.226Z,0.00
2022-10-18T18:36:40.267Z,0.00
2022-10-18T18:37:40.267Z,0.00
2022-10-18T18:38:40.265Z,0.00
2022-10-18T18:39:40.241Z,0.00
2022-10-18T18:40:40.229Z,0.00
2022-10-18T18:41:40.249Z,0.00
2022-10-18T18:42:41.267Z,0.00
2022-10-18T18:43:40.166Z,0.00
2022-10-18T18:44:40.191Z,0.00
2022-10-18T18:45:40.215Z,0.00
2022-10-18T18:46:40.221Z,0.00
2022-10-18T18:47:40.170Z,0.00
2022-10-18T18:48:40.179Z,0.00
2022-10-18T18:49:40.156Z,0.00
2022-10-18T18:50:40.178Z,0.00
2022-10-18T18:51:40.152Z,0.00
2022-10-18T18:52:40.165Z,0.00
2022-10-18T18:53:40.137Z,0.00
2022-10-18T18:54:40.185Z,0.00
2022-10-18T18:55:40.093Z,0.00
2022-10-18T18:56:40.126Z,0.00
2022-10-18T18:57:40.055Z,0.00
2022-10-18T18:58:40.116Z,0.00
2022-10-18T18:59:40.091Z,0.00
2022-10-18T19:00:43.436Z,0.00
2022-10-18T19:01:40.430Z,0.00
2022-10-18T19:02:40.132Z,0.00
2022-10-18T19:03:40.016Z,0.00
2022-10-18T19:04:40.012Z,0.00
2022-10-18T19:05:40.037Z,0.00
2022-10-18T19:06:40.072Z,0.00
2022-10-18T19:07:40.977Z,0.00
2022-10-18T19:08:40.079Z,0.00
2022-10-18T19:09:39.984Z,0.00
2022-10-18T19:10:40.887Z,0.00
2022-10-18T19:11:39.954Z,0.00
2022-10-18T19:12:39.974Z,0.00
2022-10-18T19:13:39.958Z,0.00
2022-10-18T19:14:39.988Z,0.00
2022-10-18T19:15:39.936Z,0.00
2022-10-18T19:16:39.946Z,0.00
2022-10-18T19:17:39.984Z,0.00
2022-10-18T19:18:39.956Z,0.00
2022-10-18T19:19:39.934Z,0.00
2022-10-18T19:20:40.889Z,0.00
2022-10-18T19:21:39.871Z,0.00
2022-10-18T19:22:39.905Z,0.00
2022-10-18T19:23:39.868Z,0.00
2022-10-18T19:24:39.882Z,0.00
2022-10-18T19:25:39.869Z,0.00
2022-10-18T19:26:39.831Z,0.00
2022-10-18T19:27:39.937Z,0.00
2022-10-18T19:28:39.891Z,0.00
2022-10-18T19:29:39.856Z,0.00
2022-10-18T19:30:39.834Z,0.00
2022-10-18T19:31:39.830Z,0.00
2022-10-18T19:32:39.832Z,0.00
2022-10-18T19:33:48.084Z,0.00
2022-10-18T19:34:41.782Z,0.00
2022-10-18T19:35:39.835Z,0.00
2022-10-18T19:36:39.817Z,0.00
2022-10-18T19:37:39.805Z,0.00
2022-10-18T19:38:39.756Z,0.00
2022-10-18T19:39:39.840Z,0.00
2022-10-18T19:40:39.711Z,0.00
2022-10-18T19:41:40.765Z,0.00
2022-10-18T19:42:39.721Z,0.00
2022-10-18T19:43:39.724Z,0.00
2022-10-18T19:44:39.699Z,0.00
2022-10-18T19:45:39.711Z,0.00
2022-10-18T19:46:39.689Z,0.00
2022-10-18T19:47:39.730Z,0.00
2022-10-18T19:48:39.675Z,0.00
2022-10-18T19:49:39.639Z,0.00
2022-10-18T19:50:39.715Z,0.00
2022-10-18T19:51:39.651Z,0.00
2022-10-18T19:52:39.673Z,0.00
2022-10-18T19:53:39.665Z,0.00
2022-10-18T19:54:39.649Z,0.00
2022-10-18T19:55:39.622Z,0.00
2022-10-18T19:56:39.644Z,0.00
2022-10-18T19:57:39.667Z,0.00
2022-10-18T19:58:39.632Z,0.00
2022-10-18T20:00:39.579Z,0.00
2022-10-18T20:01:39.655Z,0.00
2022-10-18T20:02:39.572Z,0.00
2022-10-18T20:03:39.545Z,0.00
2022-10-18T20:04:39.571Z,0.00
2022-10-18T20:05:39.586Z,0.00
2022-10-18T20:06:39.578Z,0.00
2022-10-18T20:07:39.493Z,0.00
2022-10-18T20:08:39.585Z,0.00
2022-10-18T20:09:39.538Z,0.00
2022-10-18T20:10:39.512Z,0.00
2022-10-18T20:11:39.509Z,0.00
2022-10-18T20:12:39.464Z,0.00
2022-10-18T20:13:39.470Z,0.00
2022-10-18T20:14:39.466Z,0.00
2022-10-18T20:15:39.523Z,0.00
2022-10-18T20:16:39.449Z,0.00
2022-10-18T20:17:39.593Z,0.00
2022-10-18T20:18:39.468Z,0.00
2022-10-18T20:19:39.469Z,0.00
2022-10-18T20:20:39.421Z,0.00
2022-10-18T20:21:39.409Z,0.00
2022-10-18T20:22:39.423Z,0.00
2022-10-18T20:23:39.467Z,0.00
2022-10-18T20:24:39.422Z,0.00
2022-10-18T20:25:39.409Z,0.00
2022-10-18T20:26:39.533Z,0.00
2022-10-18T20:27:39.483Z,0.00
2022-10-18T20:28:39.453Z,0.00
2022-10-18T20:29:39.386Z,0.00
2022-10-18T20:30:39.369Z,0.00
2022-10-18T20:31:39.596Z,0.00
2022-10-18T20:32:39.342Z,0.00
2022-10-18T20:33:39.306Z,0.00
2022-10-18T20:34:39.299Z,0.00
2022-10-18T20:35:39.348Z,0.00
2022-10-18T20:36:39.334Z,0.00
2022-10-18T20:37:39.339Z,0.00
2022-10-18T20:38:39.314Z,0.00
2022-10-18T20:39:39.286Z,0.00
2022-10-18T20:40:39.301Z,0.00
2022-10-18T20:41:39.270Z,0.00
2022-10-18T20:42:39.282Z,0.00
2022-10-18T20:43:39.307Z,0.00
2022-10-18T20:44:39.277Z,0.00
2022-10-18T20:45:39.214Z,0.00
2022-10-18T20:46:39.225Z,0.00
2022-10-18T20:47:39.299Z,0.00
2022-10-18T20:48:39.218Z,0.00
2022-10-18T20:49:39.264Z,0.00
2022-10-18T20:50:39.208Z,0.00
2022-10-18T20:51:39.195Z,0.00
2022-10-18T20:52:39.182Z,0.00
2022-10-18T20:53:39.211Z,0.00
2022-10-18T20:54:39.237Z,0.00
2022-10-18T20:55:39.141Z,0.00
2022-10-18T20:56:39.181Z,0.00
2022-10-18T20:57:39.509Z,0.00
2022-10-18T20:58:39.170Z,0.00
2022-10-18T20:59:39.144Z,0.00
2022-10-18T21:00:39.181Z,0.00
2022-10-18T21:01:39.219Z,0.00
2022-10-18T21:02:39.116Z,0.00
2022-10-18T21:03:39.180Z,0.00
2022-10-18T21:04:41.536Z,0.00
2022-10-18T21:05:39.130Z,0.00
2022-10-18T21:06:39.135Z,0.00